Time;durP1;ratioP1;P1;durP2;ratioP2;P2;SDS_P1;SDS_P2;PMS_P1;PMS_P2;Temp;Humidity;BMP_temperature;BMP_pressure;BME280_temperature;BME280_humidity;BME280_pressure;Samples;Min_cycle;Max_cycle;Signal;HPM_P1;HPM_P2
2023/11/23 00:01:07;;;;;;;16.83;8.75;;;9.70;99.90;;;;;;5046861;28;20040;-41
2023/11/23 00:03:32;;;;;;;17.25;7.93;;;9.80;99.90;;;;;;5045933;28;20029;-41
2023/11/23 00:05:58;;;;;;;17.45;7.38;;;9.80;99.90;;;;;;5046198;28;20033;-38
2023/11/23 00:08:23;;;;;;;19.13;8.30;;;9.80;99.90;;;;;;5046624;28;20034;-38
2023/11/23 00:10:49;;;;;;;18.23;8.02;;;9.80;99.90;;;;;;5045181;28;20041;-38
2023/11/23 00:13:15;;;;;;;21.92;8.68;;;9.80;99.90;;;;;;5046981;28;20479;-38
2023/11/23 00:15:40;;;;;;;13.80;7.70;;;9.80;99.90;;;;;;5046467;28;20053;-39
2023/11/23 00:18:06;;;;;;;13.30;7.45;;;9.80;99.90;;;;;;5046811;28;20395;-39
2023/11/23 00:20:32;;;;;;;14.07;7.50;;;9.80;99.90;;;;;;5046482;28;20033;-39
2023/11/23 00:22:58;;;;;;;18.92;8.30;;;9.80;99.90;;;;;;5046327;28;20034;-41
2023/11/23 00:25:24;;;;;;;16.00;6.95;;;9.90;99.90;;;;;;5046883;28;20048;-39
2023/11/23 00:27:50;;;;;;;14.25;7.78;;;9.90;99.90;;;;;;5046100;28;20081;-39
2023/11/23 00:30:18;;;;;;;17.05;7.82;;;9.90;99.90;;;;;;5046392;28;20025;-40
2023/11/23 00:32:44;;;;;;;26.42;7.00;;;10.00;99.90;;;;;;5046128;28;20032;-39
2023/11/23 00:35:09;;;;;;;16.05;6.72;;;10.10;99.90;;;;;;5044124;28;20033;-37
2023/11/23 00:37:35;;;;;;;14.85;6.43;;;10.00;99.90;;;;;;5046033;28;20029;-43
2023/11/23 00:40:02;;;;;;;17.05;6.45;;;10.10;99.90;;;;;;5046163;28;20029;-39
2023/11/23 00:42:28;;;;;;;14.85;5.85;;;10.10;99.90;;;;;;5046454;28;20440;-38
2023/11/23 00:44:55;;;;;;;15.68;6.88;;;10.10;99.90;;;;;;5046194;28;20029;-40
2023/11/23 00:47:21;;;;;;;11.82;4.97;;;10.10;99.90;;;;;;5046258;28;20435;-38
2023/11/23 00:49:47;;;;;;;14.00;6.88;;;10.10;99.90;;;;;;5045965;28;20030;-41
2023/11/23 00:52:12;;;;;;;12.57;6.25;;;10.10;99.90;;;;;;5044986;28;20037;-41
2023/11/23 00:54:39;;;;;;;16.05;6.93;;;10.10;99.90;;;;;;5045727;28;20372;-39
2023/11/23 00:57:06;;;;;;;14.30;6.97;;;10.20;99.90;;;;;;5046145;28;20037;-38
2023/11/23 00:59:35;;;;;;;12.57;6.78;;;10.20;99.90;;;;;;5045898;28;20037;-38
2023/11/23 01:02:01;;;;;;;14.95;7.28;;;10.20;99.90;;;;;;5044161;28;20033;-40
2023/11/23 01:04:27;;;;;;;14.40;6.05;;;10.20;99.90;;;;;;5045955;28;20022;-40
2023/11/23 01:06:53;;;;;;;15.65;6.75;;;10.30;99.90;;;;;;5046159;28;20049;-40
2023/11/23 01:09:20;;;;;;;11.35;5.80;;;10.20;99.90;;;;;;5045408;28;20022;-48
2023/11/23 01:11:46;;;;;;;12.90;5.95;;;10.20;99.90;;;;;;5044596;28;20025;-41
2023/11/23 01:14:11;;;;;;;12.48;6.18;;;10.20;99.90;;;;;;5045689;28;20033;-42
2023/11/23 01:16:37;;;;;;;16.38;7.07;;;10.30;99.90;;;;;;5045739;28;20053;-44
2023/11/23 01:19:03;;;;;;;18.73;6.97;;;10.30;99.90;;;;;;5045591;28;20420;-48
2023/11/23 01:21:29;;;;;;;21.17;6.60;;;10.30;99.90;;;;;;5046088;28;20108;-40
2023/11/23 01:23:54;;;;;;;11.85;5.75;;;10.30;99.90;;;;;;5045733;28;20036;-40
2023/11/23 01:26:20;;;;;;;13.38;5.97;;;10.30;99.90;;;;;;5045896;28;20045;-39
2023/11/23 01:28:45;;;;;;;13.60;6.55;;;10.30;99.90;;;;;;5045432;28;20041;-39
2023/11/23 01:31:11;;;;;;;17.88;6.55;;;10.30;99.90;;;;;;5045948;28;20030;-40
2023/11/23 01:33:37;;;;;;;16.08;6.97;;;10.30;99.90;;;;;;5045485;28;20048;-40
2023/11/23 01:36:03;;;;;;;11.57;6.50;;;10.30;99.90;;;;;;5045082;28;20034;-41
2023/11/23 01:38:28;;;;;;;15.07;6.28;;;10.30;99.90;;;;;;5045765;28;20030;-41
2023/11/23 01:41:12;;;;;;;12.38;5.68;;;10.30;99.90;;;;;;5045524;28;20022;-43
2023/11/23 01:43:38;;;;;;;9.18;5.68;;;10.30;99.90;;;;;;5047075;28;20340;-40
2023/11/23 01:46:04;;;;;;;11.00;5.93;;;10.30;99.90;;;;;;5049697;28;20022;-42
2023/11/23 01:48:31;;;;;;;13.82;5.40;;;10.30;99.90;;;;;;5049479;28;20021;-39
2023/11/23 01:50:58;;;;;;;13.15;5.28;;;10.30;99.90;;;;;;5049899;28;20052;-40
2023/11/23 01:53:24;;;;;;;12.48;5.28;;;10.20;99.90;;;;;;5049645;28;20021;-40
2023/11/23 01:55:51;;;;;;;10.48;5.47;;;10.20;99.90;;;;;;5049556;28;20030;-40
2023/11/23 01:58:18;;;;;;;18.55;5.78;;;10.20;99.90;;;;;;5049673;28;20041;-38
2023/11/23 02:00:45;;;;;;;12.82;5.07;;;10.20;99.90;;;;;;5049137;28;20029;-40
2023/11/23 02:03:11;;;;;;;9.97;4.40;;;10.30;99.90;;;;;;5048933;28;20040;-44
2023/11/23 02:05:36;;;;;;;7.70;4.30;;;10.30;99.90;;;;;;5047766;28;20014;-66
2023/11/23 02:08:03;;;;;;;9.38;4.32;;;10.30;99.90;;;;;;5049171;28;20045;-47
2023/11/23 02:10:28;;;;;;;18.75;5.40;;;10.40;99.90;;;;;;5048538;28;20079;-53
2023/11/23 02:12:55;;;;;;;11.23;4.28;;;10.40;99.90;;;;;;5048574;28;20022;-52
2023/11/23 02:15:22;;;;;;;9.35;3.60;;;10.40;99.90;;;;;;5044905;28;20049;-54
2023/11/23 02:18:00;;;;;;;7.10;3.78;;;10.40;99.90;;;;;;5046909;28;20024;-53
2023/11/23 02:20:26;;;;;;;13.73;3.55;;;10.40;99.90;;;;;;5048714;28;20450;-54
2023/11/23 02:22:51;;;;;;;7.03;3.70;;;10.30;99.90;;;;;;5048902;28;20048;-54
2023/11/23 02:25:17;;;;;;;10.70;4.03;;;10.30;99.90;;;;;;5049091;28;20032;-54
2023/11/23 02:27:43;;;;;;;11.95;3.72;;;10.30;99.90;;;;;;5048491;28;20022;-54
2023/11/23 02:30:10;;;;;;;12.02;4.00;;;10.30;99.90;;;;;;5048727;28;20100;-52
2023/11/23 02:32:35;;;;;;;18.95;5.90;;;10.30;99.90;;;;;;5049224;28;20032;-54
2023/11/23 02:35:01;;;;;;;12.38;5.07;;;10.30;99.90;;;;;;5048516;28;20025;-53
2023/11/23 02:37:26;;;;;;;10.00;4.78;;;10.30;99.90;;;;;;5048790;28;20022;-52
2023/11/23 02:39:52;;;;;;;17.42;3.80;;;10.30;99.90;;;;;;5047648;28;20037;-53
2023/11/23 02:42:18;;;;;;;8.30;4.45;;;10.40;99.90;;;;;;5048314;28;20387;-50
2023/11/23 02:44:43;;;;;;;6.53;3.55;;;10.30;99.90;;;;;;5048348;28;20029;-54
2023/11/23 02:47:09;;;;;;;7.13;3.10;;;10.40;99.90;;;;;;5048796;28;20398;-53
2023/11/23 02:49:34;;;;;;;7.72;3.78;;;10.40;99.90;;;;;;5048675;28;20025;-54
2023/11/23 02:52:00;;;;;;;10.23;3.85;;;10.30;99.90;;;;;;5048285;28;20029;-54
2023/11/23 02:54:26;;;;;;;7.63;3.17;;;10.30;99.90;;;;;;5048570;28;20029;-52
2023/11/23 02:56:52;;;;;;;11.20;3.80;;;10.30;99.90;;;;;;5048641;28;20040;-54
2023/11/23 02:59:18;;;;;;;11.07;3.00;;;10.30;99.90;;;;;;5047988;28;20033;-54
2023/11/23 03:01:43;;;;;;;9.35;3.30;;;10.30;99.90;;;;;;5048457;28;20021;-55
2023/11/23 03:04:09;;;;;;;15.90;3.85;;;10.30;99.90;;;;;;5046663;28;20035;-46
2023/11/23 03:06:35;;;;;;;12.27;3.13;;;10.30;99.90;;;;;;5048483;28;20089;-55
2023/11/23 03:09:01;;;;;;;10.77;3.00;;;10.30;99.90;;;;;;5047724;28;20030;-53
2023/11/23 03:11:27;;;;;;;6.78;3.25;;;10.30;99.90;;;;;;5048401;28;20028;-54
2023/11/23 03:13:57;;;;;;;14.80;2.78;;;10.30;99.90;;;;;;5047489;28;20566;-54
2023/11/23 03:16:24;;;;;;;8.80;2.53;;;10.30;99.90;;;;;;5047959;28;20450;-52
2023/11/23 03:18:50;;;;;;;13.00;2.50;;;10.20;99.90;;;;;;5047823;28;20029;-55
2023/11/23 03:21:16;;;;;;;9.55;2.92;;;10.20;99.90;;;;;;5046938;28;20272;-55
2023/11/23 03:23:42;;;;;;;6.53;2.53;;;10.20;99.90;;;;;;5047691;28;20034;-53
2023/11/23 03:26:09;;;;;;;8.25;2.80;;;10.20;99.90;;;;;;5048013;28;20467;-55
2023/11/23 03:28:35;;;;;;;11.75;2.25;;;10.30;99.90;;;;;;5047559;28;20028;-54
2023/11/23 03:31:01;;;;;;;9.85;2.80;;;10.30;99.90;;;;;;5048027;28;20026;-53
2023/11/23 03:33:27;;;;;;;8.45;1.98;;;10.40;99.90;;;;;;5047758;28;20038;-53
2023/11/23 03:35:53;;;;;;;12.10;2.65;;;10.40;99.90;;;;;;5047930;28;20456;-60
2023/11/23 03:38:18;;;;;;;5.43;2.00;;;10.40;99.90;;;;;;5047553;28;20040;-52
2023/11/23 03:40:44;;;;;;;5.20;1.80;;;10.30;99.90;;;;;;5047758;28;20033;-52
2023/11/23 03:43:10;;;;;;;2.65;1.80;;;10.40;99.90;;;;;;5047028;28;20029;-53
2023/11/23 03:45:36;;;;;;;7.10;2.20;;;10.40;99.90;;;;;;5047601;28;20106;-54
2023/11/23 03:48:01;;;;;;;12.15;3.15;;;10.40;99.90;;;;;;5047259;28;20085;-53
2023/11/23 03:50:29;;;;;;;5.97;2.38;;;10.40;99.90;;;;;;5046917;28;20033;-51
2023/11/23 03:52:55;;;;;;;4.72;2.05;;;10.50;99.90;;;;;;5047336;28;20021;-52
2023/11/23 03:55:22;;;;;;;6.03;2.17;;;10.50;99.90;;;;;;5047591;28;20049;-51
2023/11/23 03:57:48;;;;;;;15.00;3.72;;;10.50;99.90;;;;;;5047104;28;20032;-53
2023/11/23 04:00:15;;;;;;;8.50;2.17;;;10.40;99.90;;;;;;5047205;28;20029;-57
2023/11/23 04:02:46;;;;;;;9.10;2.60;;;10.40;99.90;;;;;;5046764;28;20049;-52
2023/11/23 04:05:17;;;;;;;12.23;2.35;;;10.40;99.90;;;;;;5046829;28;20027;-52
2023/11/23 04:07:44;;;;;;;8.50;2.28;;;10.50;99.90;;;;;;5047001;28;20032;-51
2023/11/23 04:10:09;;;;;;;6.20;1.70;;;10.40;99.90;;;;;;5047168;28;20120;-55
2023/11/23 04:12:35;;;;;;;7.88;2.03;;;10.40;99.90;;;;;;5046926;28;20108;-53
2023/11/23 04:15:01;;;;;;;7.32;1.70;;;10.40;99.90;;;;;;5046427;28;20060;-54
2023/11/23 04:17:27;;;;;;;6.82;2.65;;;10.40;99.90;;;;;;5046609;28;20116;-54
2023/11/23 04:19:54;;;;;;;6.47;1.70;;;10.30;99.90;;;;;;5047027;28;20040;-53
2023/11/23 04:22:23;;;;;;;7.95;2.20;;;10.30;99.90;;;;;;5045994;28;20596;-53
2023/11/23 04:24:49;;;;;;;8.25;2.45;;;10.30;99.90;;;;;;5045661;28;20037;-63
2023/11/23 04:27:15;;;;;;;7.25;2.05;;;10.30;99.90;;;;;;5045852;28;20403;-54
2023/11/23 04:29:41;;;;;;;5.95;1.75;;;10.30;99.90;;;;;;5045698;28;20030;-54
2023/11/23 04:32:07;;;;;;;2.45;1.92;;;10.30;99.90;;;;;;5046339;28;20027;-54
2023/11/23 04:34:33;;;;;;;18.50;1.88;;;10.30;99.90;;;;;;5046283;28;20089;-54
2023/11/23 04:36:59;;;;;;;5.97;1.88;;;10.30;99.90;;;;;;5044937;28;20025;-53
2023/11/23 04:39:25;;;;;;;1.40;1.30;;;10.30;99.90;;;;;;5046839;28;20061;-51
2023/11/23 04:41:51;;;;;;;4.50;1.70;;;10.30;99.90;;;;;;5046438;28;20029;-54
2023/11/23 04:44:17;;;;;;;5.65;1.65;;;10.30;99.90;;;;;;5046472;28;20040;-53
2023/11/23 04:46:42;;;;;;;10.77;2.78;;;10.30;99.90;;;;;;5044468;28;20048;-55
2023/11/23 04:49:08;;;;;;;7.05;1.90;;;10.30;99.90;;;;;;5046166;28;20037;-53
2023/11/23 04:51:34;;;;;;;4.85;1.50;;;10.30;99.90;;;;;;5046295;28;20057;-55
2023/11/23 04:53:59;;;;;;;7.70;1.75;;;10.30;99.90;;;;;;5046422;28;20026;-54
2023/11/23 04:56:25;;;;;;;3.20;2.05;;;10.30;99.90;;;;;;5046129;28;20029;-55
2023/11/23 04:58:51;;;;;;;8.65;2.47;;;10.30;99.90;;;;;;5046273;28;20033;-56
2023/11/23 05:01:16;;;;;;;22.65;2.78;;;10.20;99.90;;;;;;5044436;28;20021;-54
2023/11/23 05:03:42;;;;;;;4.90;1.92;;;10.30;99.90;;;;;;5044044;28;20055;-55
2023/11/23 05:06:08;;;;;;;11.77;2.78;;;10.30;99.90;;;;;;5056101;28;20028;-55
2023/11/23 05:08:34;;;;;;;5.93;2.25;;;10.30;99.90;;;;;;5046172;28;20025;-51
2023/11/23 05:11:01;;;;;;;7.18;2.42;;;10.20;99.90;;;;;;5046077;28;20056;-54
2023/11/23 05:13:26;;;;;;;12.00;2.50;;;10.30;99.90;;;;;;5045820;28;20065;-54
2023/11/23 05:15:52;;;;;;;14.73;2.72;;;10.20;99.90;;;;;;5045414;28;20056;-54
2023/11/23 05:18:18;;;;;;;8.05;2.40;;;10.30;99.90;;;;;;5045045;28;20022;-53
2023/11/23 05:20:43;;;;;;;9.50;3.08;;;10.20;99.90;;;;;;5045619;28;20029;-55
2023/11/23 05:23:09;;;;;;;6.85;2.25;;;10.20;99.90;;;;;;5045446;28;20036;-55
2023/11/23 05:25:35;;;;;;;4.95;2.40;;;10.20;99.90;;;;;;5045899;28;20087;-50
2023/11/23 05:28:00;;;;;;;7.63;3.17;;;10.20;99.90;;;;;;5045244;28;20100;-55
2023/11/23 05:30:29;;;;;;;10.32;1.95;;;10.20;99.90;;;;;;5044598;28;20021;-49
2023/11/23 05:32:55;;;;;;;13.45;3.50;;;10.20;99.90;;;;;;5045822;28;20017;-52
2023/11/23 05:35:20;;;;;;;6.88;1.88;;;10.20;99.90;;;;;;5045461;28;20049;-54
2023/11/23 05:37:46;;;;;;;7.40;2.72;;;10.30;99.90;;;;;;5045157;28;20036;-53
2023/11/23 05:40:13;;;;;;;10.85;2.30;;;10.20;99.90;;;;;;5045539;28;20395;-51
2023/11/23 05:42:39;;;;;;;7.93;1.73;;;10.20;99.90;;;;;;5045638;28;20093;-56
2023/11/23 05:45:06;;;;;;;4.32;2.30;;;10.30;99.90;;;;;;5045774;28;20040;-55
2023/11/23 05:47:31;;;;;;;7.85;2.00;;;10.30;99.90;;;;;;5045203;28;20068;-55
2023/11/23 05:50:01;;;;;;;4.68;1.90;;;10.30;99.90;;;;;;5045006;28;20037;-62
2023/11/23 05:52:30;;;;;;;15.48;1.60;;;10.30;99.90;;;;;;5045063;28;20029;-54
2023/11/23 05:54:59;;;;;;;3.78;2.03;;;10.30;99.90;;;;;;5045638;28;20083;-54
2023/11/23 05:57:24;;;;;;;5.90;2.22;;;10.30;99.90;;;;;;5045427;28;20021;-55
2023/11/23 05:59:51;;;;;;;10.90;1.95;;;10.30;99.90;;;;;;5045653;28;20021;-49
2023/11/23 06:02:20;;;;;;;7.05;1.77;;;10.30;99.90;;;;;;5045472;28;20029;-54
2023/11/23 06:04:46;;;;;;;4.57;1.83;;;10.30;99.90;;;;;;5045028;28;20031;-52
2023/11/23 06:07:12;;;;;;;7.05;1.88;;;10.30;99.90;;;;;;5045286;28;20064;-48
2023/11/23 06:09:38;;;;;;;10.20;2.50;;;10.30;99.90;;;;;;5044944;28;20021;-51
2023/11/23 06:12:04;;;;;;;8.38;1.80;;;10.30;99.90;;;;;;5045182;28;20075;-54
2023/11/23 06:14:33;;;;;;;7.03;2.00;;;10.40;99.90;;;;;;5045478;28;20046;-52
2023/11/23 06:16:58;;;;;;;6.60;1.67;;;10.30;99.90;;;;;;5045686;28;20052;-55
2023/11/23 06:19:26;;;;;;;4.90;1.80;;;10.30;99.90;;;;;;5043547;28;20029;-55
2023/11/23 06:21:52;;;;;;;4.10;1.30;;;10.30;99.90;;;;;;5045145;28;20089;-54
2023/11/23 06:24:17;;;;;;;6.63;1.92;;;10.30;99.90;;;;;;5044912;28;20025;-53
2023/11/23 06:26:43;;;;;;;5.20;1.67;;;10.30;99.90;;;;;;5045236;28;20022;-54
2023/11/23 06:29:09;;;;;;;4.60;1.80;;;10.30;99.90;;;;;;5045651;28;20025;-54
2023/11/23 06:31:35;;;;;;;7.80;1.90;;;10.30;99.90;;;;;;5048885;28;20025;-55
2023/11/23 06:34:01;;;;;;;5.82;1.90;;;10.30;99.90;;;;;;5048364;28;20092;-53
2023/11/23 06:36:26;;;;;;;10.15;2.00;;;10.30;99.90;;;;;;5048989;28;20026;-62
2023/11/23 06:38:52;;;;;;;11.60;2.28;;;10.30;99.90;;;;;;5048580;28;20498;-51
2023/11/23 06:41:19;;;;;;;4.78;2.00;;;10.30;99.90;;;;;;5048294;28;20049;-55
2023/11/23 06:43:46;;;;;;;9.85;1.83;;;10.30;99.90;;;;;;5047481;28;20069;-53
2023/11/23 06:46:12;;;;;;;5.95;2.45;;;10.40;99.90;;;;;;5048440;28;20026;-52
2023/11/23 06:48:38;;;;;;;12.45;1.92;;;10.30;99.90;;;;;;5048452;28;20163;-50
2023/11/23 06:51:03;;;;;;;9.00;1.70;;;10.30;99.90;;;;;;5048468;28;20029;-53
2023/11/23 06:53:29;;;;;;;12.98;2.20;;;10.30;99.90;;;;;;5048639;28;20030;-55
2023/11/23 06:56:02;;;;;;;5.38;1.55;;;10.30;99.90;;;;;;5048339;28;20029;-63
2023/11/23 06:58:28;;;;;;;5.78;1.60;;;10.30;99.90;;;;;;5048571;28;20522;-67
2023/11/23 07:00:53;;;;;;;11.50;2.22;;;10.30;99.90;;;;;;5047025;28;20029;-52
2023/11/23 07:03:22;;;;;;;5.95;1.73;;;10.30;99.90;;;;;;5047663;28;20033;-55
2023/11/23 07:05:48;;;;;;;6.40;1.98;;;10.30;99.90;;;;;;5046997;28;20484;-55
2023/11/23 07:08:14;;;;;;;10.30;2.10;;;10.30;99.90;;;;;;5047116;28;20110;-53
2023/11/23 07:10:41;;;;;;;8.93;2.20;;;10.30;99.90;;;;;;5047867;28;20048;-54
2023/11/23 07:13:07;;;;;;;3.50;2.00;;;10.30;99.90;;;;;;5048406;28;20030;-55
2023/11/23 07:15:33;;;;;;;4.53;2.35;;;10.30;99.90;;;;;;5047442;28;20046;-55
2023/11/23 07:17:59;;;;;;;7.95;1.80;;;10.30;99.90;;;;;;5047810;28;20124;-53
2023/11/23 07:20:26;;;;;;;8.57;2.55;;;10.20;99.90;;;;;;5047816;28;20457;-51
2023/11/23 07:22:52;;;;;;;6.63;2.23;;;10.20;99.90;;;;;;5048146;28;20026;-56
2023/11/23 07:25:18;;;;;;;6.50;2.15;;;10.10;99.90;;;;;;5047618;28;20132;-51
2023/11/23 07:27:44;;;;;;;11.20;2.88;;;10.10;99.90;;;;;;5048110;28;20026;-53
2023/11/23 07:30:10;;;;;;;9.23;2.47;;;10.10;99.90;;;;;;5047886;28;20541;-54
2023/11/23 07:32:36;;;;;;;7.13;2.13;;;10.00;99.90;;;;;;5044046;28;20017;-55
2023/11/23 07:35:03;;;;;;;6.90;1.85;;;10.00;99.90;;;;;;5047481;28;20033;-55
2023/11/23 07:37:29;;;;;;;5.10;2.17;;;10.10;99.90;;;;;;5048110;28;20032;-51
2023/11/23 07:39:56;;;;;;;4.63;1.80;;;10.10;99.90;;;;;;5047091;28;20025;-54
2023/11/23 07:42:22;;;;;;;3.47;2.08;;;10.10;99.90;;;;;;5046359;28;20094;-54
2023/11/23 07:44:48;;;;;;;12.07;1.83;;;10.10;99.90;;;;;;5045690;28;20464;-54
2023/11/23 07:47:16;;;;;;;2.95;1.50;;;10.20;99.90;;;;;;5047622;28;20025;-55
2023/11/23 07:49:42;;;;;;;9.63;2.20;;;10.20;99.90;;;;;;5047072;28;20017;-51
2023/11/23 07:52:08;;;;;;;10.02;1.83;;;10.30;99.90;;;;;;5062854;28;20026;-52
2023/11/23 07:54:34;;;;;;;3.47;1.60;;;10.30;99.90;;;;;;5047008;28;20040;-52
2023/11/23 07:57:00;;;;;;;3.75;1.95;;;10.40;99.90;;;;;;5047596;28;20037;-53
2023/11/23 07:59:25;;;;;;;10.25;1.98;;;10.50;99.90;;;;;;5046972;28;20025;-56
2023/11/23 08:01:54;;;;;;;1.73;1.33;;;10.50;99.90;;;;;;5046946;28;20436;-54
2023/11/23 08:04:19;;;;;;;11.68;2.33;;;10.60;99.90;;;;;;5046735;28;20085;-50
2023/11/23 08:06:45;;;;;;;17.45;1.88;;;10.70;99.90;;;;;;5046904;28;20017;-53
2023/11/23 08:09:15;;;;;;;7.88;1.60;;;10.80;99.90;;;;;;5046826;28;20084;-54
2023/11/23 08:11:41;;;;;;;7.35;1.75;;;10.90;99.90;;;;;;5046529;28;20028;-55
2023/11/23 08:14:07;;;;;;;7.25;1.55;;;11.00;99.90;;;;;;5046549;28;20037;-54
2023/11/23 08:16:32;;;;;;;7.78;1.85;;;11.10;99.90;;;;;;5046335;28;20400;-54
2023/11/23 08:18:58;;;;;;;8.27;1.60;;;11.20;99.90;;;;;;5047107;28;20040;-54
2023/11/23 08:21:24;;;;;;;11.27;1.88;;;11.30;99.90;;;;;;5046453;28;20063;-55
2023/11/23 08:23:50;;;;;;;13.40;1.65;;;11.30;99.90;;;;;;5046720;28;20036;-51
2023/11/23 08:26:16;;;;;;;12.13;1.48;;;11.30;99.90;;;;;;5046526;28;20085;-55
2023/11/23 08:28:42;;;;;;;5.70;1.52;;;11.40;99.90;;;;;;5046921;28;20072;-55
2023/11/23 08:31:08;;;;;;;2.92;1.38;;;11.40;99.90;;;;;;5045571;28;20052;-55
2023/11/23 08:33:33;;;;;;;3.55;1.27;;;11.50;99.90;;;;;;5046030;28;20052;-55
2023/11/23 08:35:59;;;;;;;5.13;1.70;;;11.50;99.90;;;;;;5046471;28;20029;-55
2023/11/23 08:38:27;;;;;;;7.60;1.88;;;11.50;99.90;;;;;;5045949;28;20037;-54
2023/11/23 08:40:53;;;;;;;8.40;1.50;;;11.50;99.90;;;;;;5044710;28;20037;-55
2023/11/23 08:43:19;;;;;;;10.68;1.90;;;11.50;99.90;;;;;;5046552;28;20029;-54
2023/11/23 08:45:44;;;;;;;12.98;1.42;;;11.50;99.90;;;;;;5046740;28;20044;-54
2023/11/23 08:48:10;;;;;;;7.40;1.85;;;11.60;99.90;;;;;;5046276;28;20021;-54
2023/11/23 08:50:36;;;;;;;8.25;1.65;;;11.60;99.90;;;;;;5046577;28;20038;-57
2023/11/23 08:53:02;;;;;;;10.60;2.78;;;11.70;99.90;;;;;;5045857;28;20036;-55
2023/11/23 08:55:28;;;;;;;4.70;1.30;;;11.70;99.90;;;;;;5046446;28;20025;-56
2023/11/23 08:57:53;;;;;;;7.28;1.40;;;11.70;99.90;;;;;;5044809;28;20530;-53
2023/11/23 09:00:28;;;;;;;7.90;1.83;;;11.80;99.90;;;;;;5046341;28;20097;-55
2023/11/23 09:02:57;;;;;;;5.28;1.63;;;11.80;99.90;;;;;;5045052;28;20032;-54
2023/11/23 09:05:29;;;;;;;2.63;1.48;;;11.90;99.90;;;;;;5045714;28;20032;-55
2023/11/23 09:07:54;;;;;;;7.75;2.10;;;12.00;99.90;;;;;;5045842;28;20081;-54
2023/11/23 09:10:23;;;;;;;9.52;1.50;;;12.10;99.90;;;;;;5045481;28;20056;-54
2023/11/23 09:12:49;;;;;;;9.18;1.63;;;12.10;99.90;;;;;;5045748;28;20064;-54
2023/11/23 09:15:15;;;;;;;4.57;1.30;;;12.10;99.90;;;;;;5044627;28;20050;-56
2023/11/23 09:17:41;;;;;;;8.15;2.05;;;12.00;99.90;;;;;;5045919;28;20056;-55
2023/11/23 09:20:08;;;;;;;7.68;1.55;;;12.00;99.90;;;;;;5045680;28;20029;-56
2023/11/23 09:22:35;;;;;;;9.40;1.65;;;12.00;99.90;;;;;;5046116;28;20056;-54
2023/11/23 09:25:03;;;;;;;8.80;1.90;;;12.00;99.90;;;;;;5045591;28;20032;-53
2023/11/23 09:27:28;;;;;;;5.50;1.23;;;12.10;99.90;;;;;;5045791;28;20608;-54
2023/11/23 09:29:55;;;;;;;5.63;1.73;;;12.10;99.90;;;;;;5045640;28;20021;-54
2023/11/23 09:32:21;;;;;;;6.63;1.63;;;12.20;99.90;;;;;;5046086;28;20077;-51
2023/11/23 09:34:48;;;;;;;21.42;2.00;;;12.30;99.90;;;;;;5045905;28;20480;-55
2023/11/23 09:37:13;;;;;;;12.35;1.40;;;12.40;99.90;;;;;;5045678;28;20060;-54
2023/11/23 09:39:39;;;;;;;6.75;1.35;;;12.40;99.90;;;;;;5044983;28;20476;-46
2023/11/23 09:42:07;;;;;;;5.63;1.77;;;12.50;99.90;;;;;;5044751;28;20064;-53
2023/11/23 09:44:35;;;;;;;3.17;1.45;;;12.60;99.90;;;;;;5077491;28;20030;-55
2023/11/23 09:47:03;;;;;;;10.80;2.70;;;12.70;99.90;;;;;;5045213;28;20030;-56
2023/11/23 09:49:29;;;;;;;;;;;12.80;99.90;;;;;;5045925;28;20022;-52
2023/11/23 09:51:55;;;;;;;5.30;1.67;;;12.90;99.90;;;;;;5045694;28;19909;-53
2023/11/23 09:54:26;;;;;;;4.38;1.20;;;13.00;99.90;;;;;;5045301;28;20036;-55
2023/11/23 09:56:51;;;;;;;3.85;1.02;;;13.10;99.90;;;;;;5045598;28;20029;-56
2023/11/23 09:59:17;;;;;;;6.18;1.45;;;13.20;99.90;;;;;;5045596;28;20029;-54
2023/11/23 10:01:43;;;;;;;13.93;1.40;;;13.20;99.90;;;;;;5045153;28;20040;-59
2023/11/23 10:04:10;;;;;;;5.05;0.85;;;13.30;99.90;;;;;;5046272;28;20026;-52
2023/11/23 10:06:36;;;;;;;8.48;1.25;;;13.30;99.90;;;;;;5049661;28;20025;-54
2023/11/23 10:09:02;;;;;;;7.28;1.38;;;13.20;99.90;;;;;;5049339;28;20022;-55
2023/11/23 10:11:29;;;;;;;2.15;1.33;;;13.20;99.90;;;;;;5049464;28;20107;-53
2023/11/23 10:13:54;;;;;;;9.93;1.15;;;13.20;99.90;;;;;;5048243;28;20420;-54
2023/11/23 10:16:20;;;;;;;4.97;0.85;;;13.20;99.90;;;;;;5049262;28;20092;-54
2023/11/23 10:18:46;;;;;;;7.50;1.48;;;13.20;99.90;;;;;;5049086;28;20387;-55
2023/11/23 10:21:12;;;;;;;4.82;1.25;;;13.20;99.90;;;;;;5049077;28;20076;-54
2023/11/23 10:23:43;;;;;;;3.20;0.98;;;13.30;99.90;;;;;;5048768;28;20021;-54
2023/11/23 10:26:09;;;;;;;4.88;1.20;;;13.30;99.90;;;;;;5049151;28;20025;-50
2023/11/23 10:28:36;;;;;;;7.78;0.80;;;13.30;99.90;;;;;;5047619;28;20368;-51
2023/11/23 10:31:04;;;;;;;6.47;1.95;;;13.20;99.90;;;;;;5049136;28;20029;-55
2023/11/23 10:33:33;;;;;;;7.00;0.90;;;13.30;99.90;;;;;;5048040;28;20061;-53
2023/11/23 10:36:06;;;;;;;6.40;0.85;;;13.30;99.90;;;;;;5048506;28;20032;-54
2023/11/23 10:38:40;;;;;;;10.07;2.35;;;13.30;99.90;;;;;;5048537;28;20056;-55
2023/11/23 10:41:07;;;;;;;1.85;1.42;;;13.30;99.90;;;;;;5048899;28;20147;-54
2023/11/23 10:43:37;;;;;;;4.53;2.03;;;13.30;99.90;;;;;;5047524;28;20021;-55
2023/11/23 10:46:11;;;;;;;8.38;1.40;;;13.20;99.90;;;;;;5048688;28;20017;-54
2023/11/23 10:48:38;;;;;;;10.30;1.65;;;13.20;99.90;;;;;;5048647;28;20093;-50
2023/11/23 10:51:07;;;;;;;3.05;0.60;;;13.30;99.90;;;;;;5048845;28;20036;-54
2023/11/23 10:53:33;;;;;;;5.78;1.58;;;13.50;99.90;;;;;;5047958;28;20040;-51
2023/11/23 10:56:04;;;;;;;4.35;1.40;;;13.60;99.90;;;;;;5048698;28;20060;-53
2023/11/23 10:58:33;;;;;;;4.57;1.02;;;13.60;99.90;;;;;;5048600;28;20048;-53
2023/11/23 11:01:01;;;;;;;5.85;1.30;;;13.60;99.90;;;;;;5048110;28;20042;-54
2023/11/23 11:03:28;;;;;;;11.15;1.33;;;13.60;99.90;;;;;;5046882;28;20025;-54
2023/11/23 11:05:55;;;;;;;5.70;2.70;;;13.70;99.90;;;;;;5048165;28;20064;-56
2023/11/23 11:08:26;;;;;;;5.18;0.95;;;13.80;99.90;;;;;;5046970;28;20021;-53
2023/11/23 11:10:53;;;;;;;8.48;1.88;;;13.80;99.90;;;;;;5048180;28;20089;-50
2023/11/23 11:13:24;;;;;;;7.57;1.20;;;13.80;99.90;;;;;;5048280;28;20030;-53
2023/11/23 11:15:58;;;;;;;7.72;1.00;;;13.80;99.90;;;;;;5046785;28;20079;-51
2023/11/23 11:18:29;;;;;;;7.15;1.67;;;13.80;99.90;;;;;;5047958;28;20062;-51
2023/11/23 11:21:16;;;;;;;7.57;1.00;;;13.70;99.90;;;;;;5046246;28;20041;-54
2023/11/23 11:23:46;;;;;;;5.38;1.48;;;13.80;99.90;;;;;;5047895;28;20033;-54
2023/11/23 11:26:33;;;;;;;10.73;1.20;;;13.80;99.90;;;;;;5046311;28;20056;-54
2023/11/23 11:29:05;;;;;;;6.88;1.40;;;13.70;99.90;;;;;;5047958;28;20506;-55
2023/11/23 11:31:33;;;;;;;4.90;1.10;;;13.70;99.90;;;;;;5047761;28;20025;-55
2023/11/23 11:34:03;;;;;;;5.65;1.92;;;13.80;99.90;;;;;;5048014;28;20036;-53
2023/11/23 11:36:33;;;;;;;2.22;1.35;;;13.90;99.90;;;;;;5048066;28;20029;-52
2023/11/23 11:39:00;;;;;;;4.75;1.10;;;13.90;99.90;;;;;;5047257;28;20044;-53
2023/11/23 11:41:34;;;;;;;4.95;1.30;;;13.90;99.90;;;;;;5047396;28;20029;-54
2023/11/23 11:44:00;;;;;;;3.00;1.33;;;13.90;99.90;;;;;;5047850;28;20034;-53
2023/11/23 11:46:29;;;;;;;9.23;1.20;;;13.90;99.90;;;;;;5047733;28;20123;-53
2023/11/23 11:48:58;;;;;;;9.88;1.25;;;13.90;99.90;;;;;;5047434;28;20037;-52
2023/11/23 11:51:25;;;;;;;2.78;0.93;;;13.80;99.90;;;;;;5047688;28;20025;-51
2023/11/23 11:53:53;;;;;;;15.03;1.70;;;13.90;99.90;;;;;;5047628;28;20045;-65
2023/11/23 11:56:19;;;;;;;;;;;13.90;99.90;;;;;;5047442;28;20030;-51
2023/11/23 11:58:47;;;;;;;9.20;1.50;;;14.00;99.90;;;;;;5047411;28;19931;-52
2023/11/23 12:01:13;;;;;;;5.68;1.60;;;14.00;99.90;;;;;;5047487;28;20081;-56
2023/11/23 12:03:39;;;;;;;11.55;1.33;;;14.00;99.90;;;;;;5045487;28;20041;-52
2023/11/23 12:06:05;;;;;;;3.10;1.35;;;14.10;99.90;;;;;;5047004;28;20085;-55
2023/11/23 12:08:35;;;;;;;4.20;1.67;;;14.20;99.90;;;;;;5047305;28;20037;-55
2023/11/23 12:11:02;;;;;;;9.75;1.38;;;14.10;99.90;;;;;;5047056;28;20041;-55
2023/11/23 12:13:31;;;;;;;10.40;2.20;;;14.00;99.90;;;;;;5047164;28;20049;-53
2023/11/23 12:15:56;;;;;;;1.73;1.10;;;13.90;99.90;;;;;;5046726;28;20073;-55
2023/11/23 12:18:35;;;;;;;7.32;2.08;;;14.00;99.90;;;;;;5047061;28;20049;-54
2023/11/23 12:21:12;;;;;;;3.97;1.10;;;14.10;99.90;;;;;;5046879;28;20034;-53
2023/11/23 12:23:42;;;;;;;15.82;3.25;;;14.10;99.90;;;;;;5047188;28;20030;-55
2023/11/23 12:26:10;;;;;;;11.80;0.90;;;14.00;99.90;;;;;;5046436;28;20075;-54
2023/11/23 12:28:37;;;;;;;2.33;1.42;;;14.10;99.90;;;;;;5035118;28;20105;-56
2023/11/23 12:31:03;;;;;;;3.40;1.00;;;14.20;99.90;;;;;;5046473;28;20040;-53
2023/11/23 12:33:29;;;;;;;2.83;1.38;;;14.20;99.90;;;;;;5046858;28;20100;-55
2023/11/23 12:35:54;;;;;;;7.32;1.17;;;14.30;99.90;;;;;;5046920;28;20025;-55
2023/11/23 12:38:20;;;;;;;5.07;1.10;;;14.30;99.90;;;;;;5046770;28;20089;-55
2023/11/23 12:40:46;;;;;;;12.95;1.85;;;14.40;99.90;;;;;;5046187;28;20021;-55